Time;durP1;ratioP1;P1;durP2;ratioP2;P2;SDS_P1;SDS_P2;PMS_P1;PMS_P2;Temp;Humidity;BMP_temperature;BMP_pressure;BME280_temperature;BME280_humidity;BME280_pressure;Samples;Min_cycle;Max_cycle;Signal;HPM_P1;HPM_P2
2022/07/26 00:01:23;;;;;;;8.95;5.82;;;;;;;16.48;97.78;101076.91;5113371;28;20027;-71
2022/07/26 00:03:49;;;;;;;6.30;5.45;;;;;;;16.41;97.84;101072.31;5114424;28;20486;-72
2022/07/26 00:06:15;;;;;;;8.55;6.47;;;;;;;16.43;98.17;101075.63;5114414;28;20042;-71
2022/07/26 00:08:41;;;;;;;6.40;5.80;;;;;;;16.40;98.28;101070.66;5114350;28;20040;-71
2022/07/26 00:11:07;;;;;;;7.28;6.57;;;;;;;16.38;98.20;101064.63;5117788;28;20047;-70
2022/07/26 00:13:33;;;;;;;7.07;6.15;;;;;;;16.32;98.30;101056.53;5117549;28;20049;-70
2022/07/26 00:15:58;;;;;;;7.07;6.38;;;;;;;16.32;98.48;101060.03;5119012;28;20032;-71
2022/07/26 00:18:24;;;;;;;7.30;6.57;;;;;;;16.41;98.56;101075.00;5119795;28;20027;-71
2022/07/26 00:20:49;;;;;;;6.35;5.75;;;;;;;16.36;98.34;101072.06;5113640;28;20035;-71
2022/07/26 00:23:15;;;;;;;8.55;6.80;;;;;;;16.37;98.33;101073.72;5114104;27;20031;-72
2022/07/26 00:25:41;;;;;;;6.85;6.20;;;;;;;16.34;98.50;101073.28;5114269;28;20046;-72
2022/07/26 00:28:06;;;;;;;6.50;5.90;;;;;;;16.29;98.61;101068.50;5112759;28;20460;-70
2022/07/26 00:30:33;;;;;;;7.75;6.05;;;;;;;16.33;98.92;101077.00;5113947;28;20444;-71
2022/07/26 00:32:59;;;;;;;6.60;5.88;;;;;;;16.29;98.62;101076.56;5113784;28;20027;-72
2022/07/26 00:35:25;;;;;;;7.00;6.30;;;;;;;16.29;98.95;101070.34;5113859;28;20036;-71
2022/07/26 00:37:51;;;;;;;7.38;6.38;;;;;;;16.28;99.12;101080.25;5113611;28;20039;-72
2022/07/26 00:40:18;;;;;;;7.38;6.10;;;;;;;16.28;99.46;101069.50;5113714;28;20062;-71
2022/07/26 00:42:44;;;;;;;6.63;5.97;;;;;;;16.23;99.26;101065.75;5113781;28;20047;-71
2022/07/26 00:45:11;;;;;;;6.53;5.90;;;;;;;16.23;99.34;101066.56;5113871;28;20035;-71
2022/07/26 00:47:37;;;;;;;7.97;5.68;;;;;;;16.15;99.48;101055.09;5114061;28;20039;-71
2022/07/26 00:50:09;;;;;;;6.20;5.60;;;;;;;16.25;99.79;101075.28;5114208;28;20031;-70
2022/07/26 00:52:34;;;;;;;6.65;5.70;;;;;;;16.21;99.73;101057.88;5114604;28;20042;-71
2022/07/26 00:55:01;;;;;;;6.75;5.60;;;;;;;16.21;99.91;101057.88;5114131;28;20023;-71
2022/07/26 00:57:27;;;;;;;5.85;5.35;;;;;;;16.19;99.53;101059.94;5114278;28;20027;-70
2022/07/26 00:59:53;;;;;;;7.55;6.35;;;;;;;16.19;99.75;101059.94;5114035;28;20032;-71
2022/07/26 01:02:18;;;;;;;6.88;6.18;;;;;;;16.14;99.43;101051.59;5112903;28;20512;-70
2022/07/26 01:04:45;;;;;;;5.70;5.10;;;;;;;16.13;99.78;101049.91;5113272;28;20129;-71
2022/07/26 01:07:12;;;;;;;7.50;5.57;;;;;;;16.10;99.90;101047.63;5113428;28;20027;-71
2022/07/26 01:09:38;;;;;;;5.65;5.15;;;;;;;16.11;99.58;101043.91;5113606;28;20035;-70
2022/07/26 01:12:04;;;;;;;7.22;5.65;;;;;;;16.10;99.55;101045.78;5113245;27;20062;-70
2022/07/26 01:14:30;;;;;;;8.05;6.35;;;;;;;16.09;99.61;101037.91;5113259;28;20443;-71
2022/07/26 01:16:56;;;;;;;8.25;5.47;;;;;;;16.11;99.63;101052.81;5113205;28;20027;-70
2022/07/26 01:19:21;;;;;;;6.32;5.65;;;;;;;16.11;99.93;101043.91;5112799;28;20494;-71
2022/07/26 01:21:48;;;;;;;7.45;5.93;;;;;;;16.10;99.94;101050.31;5113098;28;20036;-71
2022/07/26 01:24:14;;;;;;;8.07;5.60;;;;;;;16.10;99.97;101047.63;5113017;28;20055;-71
2022/07/26 01:26:39;;;;;;;7.75;5.43;;;;;;;16.09;99.95;101044.09;5112979;28;20032;-70
2022/07/26 01:29:05;;;;;;;6.47;5.88;;;;;;;16.06;100.00;101044.50;5112705;28;20126;-70
2022/07/26 01:31:31;;;;;;;8.38;5.95;;;;;;;16.08;100.00;101044.28;5112558;28;20122;-70
2022/07/26 01:33:58;;;;;;;5.35;4.90;;;;;;;16.00;99.71;101037.19;5111743;28;20036;-71
2022/07/26 01:36:23;;;;;;;6.28;5.63;;;;;;;16.02;99.82;101039.69;5112710;28;20085;-70
2022/07/26 01:38:50;;;;;;;6.78;5.70;;;;;;;16.04;99.62;101040.34;5112371;28;20040;-71
2022/07/26 01:41:17;;;;;;;6.30;5.70;;;;;;;16.06;99.61;101040.97;5112683;28;20062;-71
2022/07/26 01:43:42;;;;;;;11.68;6.50;;;;;;;16.05;99.64;101037.44;5112860;28;20039;-71
2022/07/26 01:46:09;;;;;;;6.22;5.70;;;;;;;16.07;99.70;101039.94;5112541;28;20027;-72
2022/07/26 01:48:35;;;;;;;6.05;5.45;;;;;;;16.09;99.73;101054.84;5112531;28;20042;-69
2022/07/26 01:51:02;;;;;;;6.18;5.57;;;;;;;16.08;99.60;101044.28;5112711;28;20062;-70
2022/07/26 01:53:27;;;;;;;8.77;7.63;;;;;;;16.11;99.36;101050.13;5112406;28;20514;-70
2022/07/26 01:55:53;;;;;;;7.38;6.70;;;;;;;16.14;99.49;101048.06;5112541;28;20110;-71
2022/07/26 01:58:19;;;;;;;6.97;6.18;;;;;;;16.09;99.40;101041.41;5112614;28;20547;-71
2022/07/26 02:00:44;;;;;;;9.02;7.07;;;;;;;16.10;99.25;101044.94;5111013;28;20075;-71
2022/07/26 02:03:10;;;;;;;8.23;7.53;;;;;;;16.14;99.21;101054.28;5112295;28;20050;-70
2022/07/26 02:05:35;;;;;;;7.10;6.40;;;;;;;16.13;98.99;101049.09;5112443;28;20047;-70
2022/07/26 02:08:01;;;;;;;9.43;6.55;;;;;;;16.18;99.24;101050.19;5112343;28;20035;-70
2022/07/26 02:11:08;;;;;;;7.57;5.82;;;;;;;16.17;99.17;101048.50;5111071;28;20521;-72
2022/07/26 02:13:15;;;;;;;7.90;6.05;;;;;;;16.21;99.19;101046.31;5102686;28;20143;-71
2022/07/26 02:15:41;;;;;;;8.50;7.60;;;;;;;16.26;98.87;101050.06;5112079;28;20054;-71
2022/07/26 02:18:07;;;;;;;10.52;7.13;;;;;;;16.26;98.97;101039.31;5112199;28;20493;-71
2022/07/26 02:20:32;;;;;;;9.00;6.97;;;;;;;16.32;98.41;101046.59;5112128;28;20085;-70
2022/07/26 02:23:00;;;;;;;8.50;6.68;;;;;;;16.31;98.59;101042.25;5112240;28;20070;-71
2022/07/26 02:25:26;;;;;;;8.27;7.22;;;;;;;16.36;98.58;101038.97;5112332;28;20491;-71
2022/07/26 02:27:51;;;;;;;8.85;6.22;;;;;;;16.40;98.25;101041.06;5112139;28;20088;-70
2022/07/26 02:30:17;;;;;;;8.18;7.38;;;;;;;16.44;97.92;101041.53;5110871;28;20066;-70
2022/07/26 02:32:43;;;;;;;8.70;7.68;;;;;;;16.51;97.93;101045.13;5112160;28;20035;-71
2022/07/26 02:35:09;;;;;;;8.68;6.88;;;;;;;16.57;97.90;101051.56;5094126;28;20031;-71
2022/07/26 02:37:34;;;;;;;10.52;8.27;;;;;;;16.59;97.51;101044.13;5110767;28;20039;-70
2022/07/26 02:40:02;;;;;;;13.80;12.02;;;;;;;16.59;97.38;101038.75;5112153;28;20051;-70
2022/07/26 02:42:29;;;;;;;10.90;7.93;;;;;;;16.66;97.30;101050.41;5111944;28;20494;-71
2022/07/26 02:44:54;;;;;;;9.00;8.10;;;;;;;16.63;97.40;101040.03;5114503;28;20035;-71
2022/07/26 02:47:20;;;;;;;8.70;7.57;;;;;;;16.72;97.46;101047.78;5115999;28;20394;-71
2022/07/26 02:49:45;;;;;;;9.68;7.72;;;;;;;16.77;96.95;101047.22;5116959;28;20031;-71
2022/07/26 02:52:11;;;;;;;8.23;7.25;;;;;;;16.81;96.89;101048.47;5117088;28;20043;-71
2022/07/26 02:54:36;;;;;;;9.15;6.75;;;;;;;16.85;96.42;101049.75;5116185;28;20502;-71
2022/07/26 02:57:02;;;;;;;8.82;6.75;;;;;;;16.92;96.56;101049.78;5115813;28;20039;-71
2022/07/26 02:59:28;;;;;;;8.95;7.18;;;;;;;16.96;96.45;101045.66;5115692;28;20092;-71
2022/07/26 03:01:53;;;;;;;10.73;8.68;;;;;;;17.00;95.87;101053.13;5115967;28;20085;-70
2022/07/26 03:04:19;;;;;;;7.70;6.90;;;;;;;17.04;96.23;101053.56;5115871;28;20036;-70
2022/07/26 03:06:49;;;;;;;7.95;7.13;;;;;;;17.04;95.97;101046.31;5115515;28;20109;-71
2022/07/26 03:09:14;;;;;;;8.43;7.20;;;;;;;17.12;95.67;101053.44;5115541;28;20510;-71
2022/07/26 03:11:40;;;;;;;7.72;6.97;;;;;;;17.19;95.73;101057.00;5115431;28;20050;-71
2022/07/26 03:14:06;;;;;;;9.15;7.35;;;;;;;18.13;93.13;101049.06;5115502;28;20039;-72
2022/07/26 03:16:31;;;;;;;7.35;6.65;;;;;;;20.23;83.72;101045.19;5114157;28;20051;-70
2022/07/26 03:18:56;;;;;;;6.60;5.82;;;;;;;22.16;75.02;101045.63;5115331;28;20079;-70
2022/07/26 03:21:22;;;;;;;9.00;5.72;;;;;;;23.00;70.84;101030.03;5115433;28;20039;-70
2022/07/26 03:23:48;;;;;;;6.88;4.78;;;;;;;23.46;68.59;101045.44;5115292;28;20027;-71
2022/07/26 03:26:14;;;;;;;8.73;5.35;;;;;;;23.95;66.28;101045.84;5115336;28;20031;-71
2022/07/26 03:28:41;;;;;;;4.68;3.95;;;;;;;24.47;63.79;101041.06;5115376;28;20047;-71
2022/07/26 03:31:07;;;;;;;6.22;4.22;;;;;;;24.96;60.68;101038.53;5115426;28;20092;-70
2022/07/26 03:33:32;;;;;;;5.05;4.03;;;;;;;25.58;57.43;101047.28;5115165;27;20028;-70
2022/07/26 03:35:58;;;;;;;7.90;4.28;;;;;;;25.99;56.20;101047.75;5115833;28;20118;-71
2022/07/26 03:38:24;;;;;;;7.35;3.53;;;;;;;25.56;56.76;101054.06;5114934;28;20466;-70
2022/07/26 03:40:50;;;;;;;4.90;3.53;;;;;;;24.23;60.98;101042.25;5119070;28;20055;-70
2022/07/26 03:43:15;;;;;;;9.48;4.38;;;;;;;23.02;65.28;101039.59;5119315;28;20131;-70
2022/07/26 03:45:41;;;;;;;6.80;3.88;;;;;;;22.09;67.95;101042.19;5120081;28;20055;-70
2022/07/26 03:48:07;;;;;;;6.50;4.22;;;;;;;22.48;67.03;101030.72;5115689;28;20399;-71
2022/07/26 03:50:32;;;;;;;6.35;3.78;;;;;;;22.72;65.41;101038.88;5115219;28;20045;-71
2022/07/26 03:52:58;;;;;;;5.07;4.00;;;;;;;22.08;65.76;101024.28;5113774;28;20031;-71
2022/07/26 03:58:07;;;;;;;6.50;4.20;;;;;;;21.34;69.47;101032.53;5115087;28;20038;-70
2022/07/26 04:00:33;;;;;;;5.32;4.20;;;;;;;21.48;69.75;101025.09;5116708;28;20028;-70
2022/07/26 04:02:58;;;;;;;6.35;4.35;;;;;;;22.15;66.67;101027.72;5120019;28;20031;-71
2022/07/26 04:05:24;;;;;;;10.05;7.32;;;;;;;23.09;63.49;101023.16;5119845;28;20032;-70
2022/07/26 04:07:50;;;;;;;7.03;4.40;;;;;;;23.64;61.12;101009.91;5117938;28;20040;-71
2022/07/26 04:10:17;;;;;;;6.82;4.43;;;;;;;23.82;59.71;101018.97;5114631;28;20126;-72
2022/07/26 04:12:42;;;;;;;9.13;5.95;;;;;;;24.80;56.37;101018.41;5113991;28;20035;-71
2022/07/26 04:15:09;;;;;;;6.25;5.35;;;;;;;25.81;53.52;101010.75;5114670;27;20039;-70
2022/07/26 04:17:39;;;;;;;7.78;3.95;;;;;;;26.56;51.51;101008.94;5114505;28;20039;-70
2022/07/26 04:20:06;;;;;;;7.38;3.72;;;;;;;27.15;48.65;101006.03;5114347;28;20092;-70
2022/07/26 04:22:31;;;;;;;6.90;4.07;;;;;;;27.57;46.42;101005.09;5112890;28;20447;-71
2022/07/26 04:24:57;;;;;;;9.45;3.60;;;;;;;27.88;45.23;101006.81;5114521;28;20131;-69
2022/07/26 04:27:22;;;;;;;5.10;3.47;;;;;;;28.07;43.99;101010.69;5114077;28;20402;-71
2022/07/26 04:29:48;;;;;;;6.95;3.60;;;;;;;28.25;43.78;101008.50;5114118;28;20114;-71
2022/07/26 04:32:13;;;;;;;7.00;3.38;;;;;;;28.46;43.39;101010.16;5114026;28;20031;-71
2022/07/26 04:34:39;;;;;;;4.10;3.25;;;;;;;28.14;43.48;100976.72;5114115;28;20063;-71
2022/07/26 04:37:04;;;;;;;5.35;4.15;;;;;;;28.03;43.63;101015.03;5113836;28;20046;-71
2022/07/26 04:39:31;;;;;;;7.43;3.97;;;;;;;27.75;44.43;101005.41;5113637;28;20083;-72
2022/07/26 04:41:56;;;;;;;7.10;4.38;;;;;;;27.49;44.69;101000.97;5113763;28;20063;-72
2022/07/26 04:44:22;;;;;;;20.30;4.63;;;;;;;27.34;44.60;101003.66;5113804;28;20031;-71
2022/07/26 04:46:47;;;;;;;10.45;3.92;;;;;;;27.05;45.40;100995.06;5113766;28;20114;-72
2022/07/26 04:49:12;;;;;;;11.13;4.55;;;;;;;26.62;46.49;101002.44;5113731;28;20115;-71
2022/07/26 04:51:38;;;;;;;7.07;3.67;;;;;;;26.25;46.92;100995.03;5113299;28;20027;-71
2022/07/26 04:54:04;;;;;;;7.85;4.70;;;;;;;25.98;47.27;100990.69;5094678;28;20035;-72
2022/07/26 04:56:30;;;;;;;5.60;3.88;;;;;;;25.45;48.55;100995.88;5094708;28;20031;-71
2022/07/26 04:58:55;;;;;;;6.60;4.57;;;;;;;25.81;48.25;100999.00;5113662;28;20614;-71
2022/07/26 05:01:21;;;;;;;10.05;4.50;;;;;;;26.61;45.99;100984.41;5113335;28;20110;-72
2022/07/26 05:03:47;;;;;;;13.10;5.22;;;;;;;27.30;44.93;100991.59;5113629;28;20039;-71
2022/07/26 05:06:12;;;;;;;27.83;6.57;;;;;;;27.70;43.85;100977.22;5112055;28;20028;-70
2022/07/26 05:09:03;;;;;;;7.90;4.00;;;;;;;27.87;42.96;100988.75;5113411;28;20103;-70
2022/07/26 05:11:28;;;;;;;7.43;4.90;;;;;;;27.22;44.45;101001.16;5112513;28;20039;-71
2022/07/26 05:13:54;;;;;;;7.32;3.80;;;;;;;26.63;44.47;101004.09;5113222;28;20042;-71
2022/07/26 05:16:19;;;;;;;11.45;4.53;;;;;;;26.44;43.71;100989.19;5113207;28;20425;-71
2022/07/26 05:18:45;;;;;;;9.13;3.72;;;;;;;26.27;44.59;100996.66;5113506;28;20036;-71
2022/07/26 05:21:11;;;;;;;7.45;4.22;;;;;;;25.95;47.13;101000.22;5113063;28;20536;-72
2022/07/26 05:23:36;;;;;;;5.85;3.13;;;;;;;24.80;47.81;100990.34;5113153;28;20046;-72
2022/07/26 05:26:02;;;;;;;3.45;1.85;;;;;;;23.60;49.29;100997.06;5113094;28;20043;-71
2022/07/26 05:28:27;;;;;;;16.80;3.10;;;;;;;22.84;50.81;100993.56;5112717;28;20382;-71
2022/07/26 05:30:53;;;;;;;4.25;1.95;;;;;;;22.40;50.68;100982.22;5111316;28;20407;-71
2022/07/26 05:33:18;;;;;;;5.47;2.10;;;;;;;22.27;51.52;100982.47;5112609;28;20039;-71
2022/07/26 05:35:44;;;;;;;2.65;2.28;;;;;;;22.23;52.37;100973.09;5112634;28;20458;-70
2022/07/26 05:38:09;;;;;;;4.05;2.88;;;;;;;22.46;52.36;100997.56;5112700;28;20602;-71
2022/07/26 05:40:35;;;;;;;20.65;10.45;;;;;;;22.55;53.12;100993.44;5112779;28;20108;-70
2022/07/26 05:43:01;;;;;;;6.00;3.20;;;;;;;22.62;53.10;100997.91;5112762;28;20035;-72
2022/07/26 05:45:27;;;;;;;6.90;2.70;;;;;;;22.41;51.66;100994.72;5112791;28;20035;-71
2022/07/26 05:47:52;;;;;;;8.35;3.33;;;;;;;22.31;52.07;100989.06;5112785;28;20031;-72
2022/07/26 05:50:18;;;;;;;6.65;2.97;;;;;;;22.30;53.59;100983.88;5112486;28;20470;-70
2022/07/26 05:52:44;;;;;;;7.63;2.88;;;;;;;22.54;52.70;101004.50;5111628;28;20517;-72
2022/07/26 05:55:10;;;;;;;6.80;3.03;;;;;;;22.60;52.21;100997.34;5112493;28;20605;-72
2022/07/26 05:57:36;;;;;;;8.13;3.53;;;;;;;22.51;51.29;100973.25;5112798;28;20035;-71
2022/07/26 06:00:03;;;;;;;7.88;3.40;;;;;;;22.54;50.65;100975.47;5111417;28;20038;-72
2022/07/26 06:02:29;;;;;;;7.20;2.70;;;;;;;22.60;50.06;100983.75;5111641;28;20393;-71
2022/07/26 06:04:54;;;;;;;9.18;4.18;;;;;;;22.59;49.04;100984.81;5112339;28;20036;-71
2022/07/26 06:07:20;;;;;;;8.40;3.30;;;;;;;22.65;50.53;100975.72;5112373;28;20044;-70
2022/07/26 06:09:48;;;;;;;7.75;3.25;;;;;;;22.75;48.87;100984.09;5112103;28;20039;-71
2022/07/26 06:12:13;;;;;;;6.97;3.28;;;;;;;22.77;48.59;100985.50;5112185;28;20522;-71
2022/07/26 06:14:39;;;;;;;8.25;3.22;;;;;;;22.86;47.54;100988.75;5112467;28;20045;-71
2022/07/26 06:17:04;;;;;;;5.90;2.50;;;;;;;22.91;46.88;100986.13;5112665;28;20052;-71
2022/07/26 06:19:30;;;;;;;4.78;2.72;;;;;;;22.99;47.87;100987.63;5113246;28;20031;-72
2022/07/26 06:21:55;;;;;;;3.67;2.05;;;;;;;23.03;45.60;100980.66;5117460;28;20031;-71
2022/07/26 06:24:22;;;;;;;3.38;2.13;;;;;;;23.01;46.54;100975.47;5122041;28;20032;-69
2022/07/26 06:26:50;;;;;;;6.88;2.95;;;;;;;22.98;47.99;100978.66;5129274;28;20066;-70
2022/07/26 06:29:16;;;;;;;;;;;;;;;23.00;49.01;100976.53;5130086;27;20039;-69
2022/07/26 06:31:41;;;;;;;5.53;2.83;;;;;;;22.85;47.87;100984.38;5129520;28;19975;-70
2022/07/26 06:34:07;;;;;;;4.78;2.67;;;;;;;22.77;48.74;100981.97;5129109;28;20043;-69
2022/07/26 06:36:32;;;;;;;5.40;2.50;;;;;;;22.75;48.33;100981.38;5129358;27;20031;-69
2022/07/26 06:39:00;;;;;;;6.30;2.55;;;;;;;22.71;49.67;100983.75;5127115;28;20039;-74
2022/07/26 06:41:27;;;;;;;4.40;3.10;;;;;;;22.61;49.67;100971.84;5117097;28;20050;-74
2022/07/26 06:43:52;;;;;;;6.68;3.08;;;;;;;22.63;48.37;100969.72;5117319;28;20285;-70
2022/07/26 06:46:19;;;;;;;6.47;2.22;;;;;;;22.72;48.58;100976.44;5117579;28;20023;-71
2022/07/26 06:48:45;;;;;;;5.88;2.15;;;;;;;22.77;48.34;100971.94;5116865;28;20383;-69
2022/07/26 06:51:11;;;;;;;5.18;2.83;;;;;;;22.90;47.41;100978.22;5116739;28;20139;-73
2022/07/26 06:53:37;;;;;;;3.50;1.92;;;;;;;22.98;47.13;100973.25;5115130;28;20105;-73
2022/07/26 06:56:03;;;;;;;5.82;2.00;;;;;;;23.00;48.00;100968.38;5116428;28;20324;-69
2022/07/26 06:58:28;;;;;;;3.88;1.80;;;;;;;22.95;45.95;100945.72;5115939;28;20040;-68
2022/07/26 07:00:54;;;;;;;4.28;1.75;;;;;;;23.05;45.48;100968.50;5114735;28;20410;-70
2022/07/26 07:03:19;;;;;;;9.05;2.30;;;;;;;23.01;46.74;100967.31;5115892;28;20039;-72
2022/07/26 07:05:46;;;;;;;3.33;1.52;;;;;;;23.05;45.76;100963.06;5116113;28;20044;-72
2022/07/26 07:08:14;;;;;;;2.38;1.17;;;;;;;23.10;46.60;100963.16;5116291;28;20553;-69
2022/07/26 07:10:40;;;;;;;4.13;1.67;;;;;;;23.14;46.94;100961.63;5115964;28;20475;-69
2022/07/26 07:13:06;;;;;;;1.88;1.23;;;;;;;23.14;46.76;100956.19;5115959;28;20122;-72
2022/07/26 07:15:31;;;;;;;5.68;1.75;;;;;;;23.13;46.59;100954.56;5115542;28;20056;-71
2022/07/26 07:17:57;;;;;;;5.95;2.10;;;;;;;23.27;46.14;100967.84;5115393;28;20035;-73
2022/07/26 07:20:22;;;;;;;2.78;1.23;;;;;;;23.29;45.33;100963.81;5115791;28;20046;-72
2022/07/26 07:22:48;;;;;;;3.20;1.88;;;;;;;23.30;45.75;100964.63;5118194;28;20420;-71
2022/07/26 07:25:14;;;;;;;3.15;1.92;;;;;;;23.25;46.32;100959.13;5118029;28;20513;-72
2022/07/26 07:27:39;;;;;;;4.88;1.70;;;;;;;23.30;47.19;100959.22;5117486;28;20035;-75
2022/07/26 07:30:07;;;;;;;6.95;2.85;;;;;;;23.25;47.57;100948.25;5120294;28;20119;-72
2022/07/26 07:32:32;;;;;;;3.70;1.50;;;;;;;23.33;47.56;100964.97;5115507;27;20070;-73
2022/07/26 07:34:58;;;;;;;5.43;1.70;;;;;;;23.34;48.24;100957.66;5115863;28;20063;-73
2022/07/26 07:37:23;;;;;;;2.17;1.58;;;;;;;23.36;46.03;100956.34;5114470;28;20031;-73
2022/07/26 07:39:50;;;;;;;3.47;1.98;;;;;;;23.11;46.59;100907.75;5114933;28;20550;-72
2022/07/26 07:42:16;;;;;;;6.03;1.70;;;;;;;23.44;48.21;100953.25;5115103;27;20213;-73
2022/07/26 07:44:41;;;;;;;2.63;1.77;;;;;;;23.45;47.68;100957.63;5115055;28;20035;-72
2022/07/26 07:47:10;;;;;;;3.22;1.92;;;;;;;23.48;47.63;100948.16;5113746;28;20043;-71
2022/07/26 07:49:35;;;;;;;4.78;1.92;;;;;;;23.54;48.44;100949.91;5115246;28;20041;-70
2022/07/26 07:52:01;;;;;;;4.45;2.22;;;;;;;23.55;48.40;100940.66;5113476;28;20039;-71
2022/07/26 07:54:26;;;;;;;5.63;1.90;;;;;;;23.60;47.33;100948.94;5114659;28;20043;-72
2022/07/26 07:56:54;;;;;;;3.83;2.13;;;;;;;23.57;48.42;100948.63;5114951;28;20032;-71
2022/07/26 07:59:21;;;;;;;4.82;2.30;;;;;;;23.60;48.32;100946.22;5114258;28;20063;-71
2022/07/26 08:01:47;;;;;;;3.95;2.55;;;;;;;23.68;48.43;100951.25;5114681;28;20048;-72
2022/07/26 08:04:12;;;;;;;7.55;2.10;;;;;;;23.77;48.03;100955.25;5114611;28;20128;-71
2022/07/26 08:06:38;;;;;;;2.97;2.33;;;;;;;23.86;47.99;100946.69;5114721;28;20046;-71
2022/07/26 08:09:03;;;;;;;5.10;2.47;;;;;;;23.94;48.68;100949.00;5114511;28;20127;-72
2022/07/26 08:11:29;;;;;;;4.90;2.03;;;;;;;23.94;47.21;100946.25;5114317;28;20043;-72
2022/07/26 08:13:54;;;;;;;4.97;2.25;;;;;;;23.96;48.02;100944.94;5114506;28;20051;-73
2022/07/26 08:16:19;;;;;;;5.25;1.70;;;;;;;23.96;47.01;100936.78;5114320;28;20087;-72
2022/07/26 08:18:45;;;;;;;4.03;2.38;;;;;;;24.08;47.46;100950.31;5114620;28;20027;-75
2022/07/26 08:21:10;;;;;;;6.40;2.35;;;;;;;24.13;47.54;100941.41;5112989;28;20126;-71
2022/07/26 08:23:36;;;;;;;10.88;4.88;;;;;;;24.17;46.08;100943.38;5114449;28;20069;-71
2022/07/26 08:26:01;;;;;;;6.78;3.58;;;;;;;24.18;46.87;100944.22;5114143;28;20391;-72
2022/07/26 08:28:27;;;;;;;6.10;2.72;;;;;;;24.18;46.26;100936.88;5114307;28;20126;-71
2022/07/26 08:30:53;;;;;;;5.60;1.88;;;;;;;24.17;46.84;100927.06;5114084;28;20486;-71
2022/07/26 08:33:19;;;;;;;6.30;2.90;;;;;;;24.23;48.02;100936.94;5112925;28;20059;-69
2022/07/26 08:35:44;;;;;;;2.50;1.73;;;;;;;24.19;47.15;100924.09;5114407;28;20051;-69
2022/07/26 08:38:10;;;;;;;3.67;2.10;;;;;;;24.21;46.73;100925.50;5114257;28;20465;-73
2022/07/26 08:40:37;;;;;;;3.85;2.30;;;;;;;24.20;46.69;100920.28;5114033;28;20055;-70
2022/07/26 08:43:02;;;;;;;3.83;1.95;;;;;;;24.00;47.18;100889.00;5121268;28;20047;-71
2022/07/26 08:45:30;;;;;;;5.43;1.90;;;;;;;24.22;46.60;100918.97;5113503;28;20028;-71
2022/07/26 08:47:56;;;;;;;;;;;;;;;24.35;47.22;100935.00;5114514;27;20045;-72
2022/07/26 08:50:22;;;;;;;4.82;2.22;;;;;;;24.33;47.05;100931.72;5114164;28;19945;-71
2022/07/26 08:52:50;;;;;;;7.60;1.90;;;;;;;24.48;47.09;100944.72;5113924;28;20513;-71
2022/07/26 08:55:18;;;;;;;6.27;2.07;;;;;;;24.55;47.14;100930.91;5113732;28;20035;-71
2022/07/26 08:57:44;;;;;;;2.60;1.77;;;;;;;24.76;46.88;100941.00;5113354;28;20327;-70
2022/07/26 09:00:28;;;;;;;6.38;2.30;;;;;;;24.91;46.57;100938.50;5113539;27;20078;-70
2022/07/26 09:02:55;;;;;;;3.83;1.98;;;;;;;24.89;44.98;100937.13;5114040;28;20092;-70
2022/07/26 09:05:33;;;;;;;3.42;2.38;;;;;;;25.17;46.19;100938.84;5117286;28;20039;-72
2022/07/26 09:07:59;;;;;;;5.75;2.03;;;;;;;25.25;44.67;100938.38;5113158;28;20063;-70
2022/07/26 09:10:26;;;;;;;5.40;2.88;;;;;;;25.21;44.64;100929.91;5113121;28;20034;-71
2022/07/26 09:12:54;;;;;;;4.50;4.05;;;;;;;25.27;45.89;100919.88;5113351;28;20035;-73
2022/07/26 09:15:25;;;;;;;5.70;2.60;;;;;;;25.47;45.09;100919.28;5113207;28;20046;-70
2022/07/26 09:17:56;;;;;;;2.97;2.47;;;;;;;25.53;44.83;100913.59;5113076;28;20031;-72
2022/07/26 09:20:27;;;;;;;3.55;2.35;;;;;;;25.59;44.63;100907.13;5112865;28;20043;-73
2022/07/26 09:23:05;;;;;;;5.30;1.88;;;;;;;25.68;43.48;100910.22;5113491;28;20032;-72
2022/07/26 09:25:41;;;;;;;4.03;2.42;;;;;;;25.76;44.08;100906.22;5111989;28;20380;-73
2022/07/26 09:28:29;;;;;;;5.28;2.70;;;;;;;25.67;43.61;100911.28;5113306;28;20070;-71
2022/07/26 09:30:56;;;;;;;4.80;2.58;;;;;;;25.68;43.30;100917.56;5113118;28;20379;-71
2022/07/26 09:33:22;;;;;;;4.63;2.17;;;;;;;25.50;43.80;100905.13;5112931;28;20042;-71
2022/07/26 09:36:02;;;;;;;5.75;2.10;;;;;;;25.65;44.00;100910.69;5113126;28;20035;-69
2022/07/26 09:39:04;;;;;;;4.22;2.45;;;;;;;25.88;44.01;100910.41;5112958;28;20042;-72
2022/07/26 09:41:35;;;;;;;5.18;2.20;;;;;;;25.93;44.45;100902.25;5098466;28;20573;-72
2022/07/26 09:44:17;;;;;;;5.93;2.83;;;;;;;26.06;43.49;100894.72;5112818;28;20053;-70
2022/07/26 09:46:51;;;;;;;3.92;2.00;;;;;;;26.16;42.36;100895.59;5112736;28;20039;-71
2022/07/26 09:49:19;;;;;;;4.35;2.78;;;;;;;26.35;43.10;100887.84;5113022;28;20092;-72
2022/07/26 09:51:53;;;;;;;2.60;2.30;;;;;;;26.45;43.76;100887.91;5112866;28;20065;-73
2022/07/26 09:54:40;;;;;;;3.25;2.40;;;;;;;26.36;43.56;100883.19;5110528;28;20501;-72
2022/07/26 09:57:05;;;;;;;4.35;3.28;;;;;;;26.26;43.24;100883.91;5113164;28;20032;-72
2022/07/26 09:59:31;;;;;;;3.15;2.83;;;;;;;26.30;42.41;100885.03;5112491;28;20146;-73
2022/07/26 10:01:58;;;;;;;3.33;2.00;;;;;;;26.34;42.07;100879.91;5112769;28;20036;-72
2022/07/26 10:04:25;;;;;;;5.05;2.53;;;;;;;26.27;43.02;100874.63;5112407;28;20179;-72
2022/07/26 10:06:51;;;;;;;4.03;2.88;;;;;;;26.28;43.21;100872.72;5112960;28;20395;-73
2022/07/26 10:09:17;;;;;;;5.60;2.78;;;;;;;25.96;42.66;100876.34;5112582;28;20047;-72
2022/07/26 10:12:07;;;;;;;2.92;2.30;;;;;;;25.84;43.75;100870.25;5111254;28;20032;-72
2022/07/26 10:14:34;;;;;;;5.22;2.17;;;;;;;25.66;43.42;100870.63;5111021;28;20078;-70
2022/07/26 10:17:01;;;;;;;3.42;2.25;;;;;;;25.45;44.52;100862.28;5111029;28;20039;-72
2022/07/26 10:19:40;;;;;;;2.25;2.00;;;;;;;25.49;44.60;100873.47;5112232;28;20042;-70
2022/07/26 10:22:31;;;;;;;4.38;2.70;;;;;;;25.49;43.94;100868.84;5112484;28;20031;-72
2022/07/26 10:25:17;;;;;;;2.85;2.58;;;;;;;25.52;44.54;100862.88;5112285;28;20062;-72
2022/07/26 10:27:48;;;;;;;4.85;2.45;;;;;;;25.68;43.32;100860.28;5110995;28;20031;-72
2022/07/26 10:30:17;;;;;;;4.28;2.13;;;;;;;25.73;43.23;100858.44;5112341;28;20028;-72
2022/07/26 10:33:06;;;;;;;3.65;2.22;;;;;;;25.77;43.49;100856.84;5112487;28;20039;-69
2022/07/26 10:35:35;;;;;;;4.82;2.15;;;;;;;25.69;42.53;100856.47;5112523;28;20035;-69
2022/07/26 10:38:09;;;;;;;4.55;2.03;;;;;;;25.62;42.75;100846.59;5112390;28;20115;-70
2022/07/26 10:40:55;;;;;;;4.32;2.30;;;;;;;25.49;42.98;100827.13;5110692;28;20573;-73
2022/07/26 10:43:21;;;;;;;3.05;1.65;;;;;;;25.51;43.09;100838.59;5112381;28;20512;-72
2022/07/26 10:45:46;;;;;;;1.88;1.70;;;;;;;25.38;43.09;100839.00;5112356;28;20031;-70
2022/07/26 10:48:17;;;;;;;3.35;2.08;;;;;;;25.40;43.81;100843.13;5112103;28;20036;-70
2022/07/26 10:50:48;;;;;;;5.25;2.15;;;;;;;25.49;44.78;100852.50;5112195;28;20089;-70
2022/07/26 10:53:20;;;;;;;5.28;2.95;;;;;;;25.56;43.50;100852.28;5112226;28;20042;-71
2022/07/26 10:55:54;;;;;;;3.65;1.80;;;;;;;25.52;43.02;100835.59;5111941;28;20152;-71
2022/07/26 10:58:21;;;;;;;4.78;2.70;;;;;;;25.50;43.22;100837.78;5112525;28;20457;-73
2022/07/26 11:01:01;;;;;;;2.85;1.88;;;;;;;25.37;42.78;100838.19;5093390;28;20035;-72
2022/07/26 11:03:41;;;;;;;2.35;1.88;;;;;;;25.28;43.62;100839.75;5111959;28;20124;-72
2022/07/26 11:06:09;;;;;;;2.80;1.75;;;;;;;25.29;43.55;100841.38;5113624;28;20508;-72
2022/07/26 11:08:34;;;;;;;18.08;2.78;;;;;;;25.29;43.98;100834.03;5115599;28;20398;-71
2022/07/26 11:11:00;;;;;;;2.45;1.55;;;;;;;25.24;44.53;100816.81;5115634;28;20028;-72
2022/07/26 11:13:25;;;;;;;4.53;2.55;;;;;;;25.37;43.99;100830.00;5114277;28;20027;-71
2022/07/26 11:16:05;;;;;;;3.00;2.42;;;;;;;25.33;43.31;100813.34;5116402;28;20082;-73
2022/07/26 11:18:35;;;;;;;2.90;1.70;;;;;;;25.29;42.71;100819.59;5114826;28;20062;-70
2022/07/26 11:21:15;;;;;;;5.72;1.70;;;;;;;25.25;43.92;100808.38;5115896;28;20077;-70
2022/07/26 11:23:45;;;;;;;7.68;5.38;;;;;;;25.40;43.04;100828.66;5115577;27;20562;-70
2022/07/26 11:26:17;;;;;;;4.22;2.00;;;;;;;25.37;41.27;100821.81;5114368;28;20387;-70
2022/07/26 11:28:54;;;;;;;6.47;4.63;;;;;;;25.42;41.90;100824.59;5115770;28;20027;-72